Time;durP1;ratioP1;P1;durP2;ratioP2;P2;SDS_P1;SDS_P2;PMS_P1;PMS_P2;Temp;Humidity;BMP_temperature;BMP_pressure;BME280_temperature;BME280_humidity;BME280_pressure;Samples;Min_cycle;Max_cycle;Signal;HPM_P1;HPM_P2
2023/11/01 00:02:03;;;;;;;0.57;0.53;;;8.90;1.00;;;;;;5149045;27;20468;-75
2023/11/01 00:04:30;;;;;;;1.10;0.73;;;8.90;1.00;;;;;;5133045;27;20520;-75
2023/11/01 00:06:58;;;;;;;1.80;0.97;;;8.90;1.00;;;;;;5125874;27;20465;-73
2023/11/01 00:09:25;;;;;;;1.53;0.70;;;9.00;1.00;;;;;;5120161;27;20466;-75
2023/11/01 00:11:52;;;;;;;1.93;1.00;;;9.00;1.00;;;;;;5127066;27;20563;-74
2023/11/01 00:14:19;;;;;;;1.57;0.90;;;9.10;1.00;;;;;;5128107;27;20453;-74
2023/11/01 00:16:47;;;;;;;3.20;0.93;;;9.10;1.00;;;;;;5127282;27;20542;-74
2023/11/01 00:19:15;;;;;;;0.70;0.60;;;9.10;1.00;;;;;;5124324;27;20456;-74
2023/11/01 00:21:42;;;;;;;1.30;0.80;;;9.10;1.00;;;;;;5142367;27;20971;-73
2023/11/01 00:24:09;;;;;;;2.00;0.83;;;9.10;1.00;;;;;;5131353;27;20975;-74
2023/11/01 00:26:36;;;;;;;1.23;0.97;;;9.10;1.00;;;;;;5135911;27;21068;-73
2023/11/01 00:29:03;;;;;;;2.90;1.03;;;9.20;1.00;;;;;;5147260;27;20445;-75
2023/11/01 00:31:30;;;;;;;1.63;1.10;;;9.20;1.00;;;;;;5143181;27;20531;-74
2023/11/01 00:34:01;;;;;;;2.33;0.83;;;9.20;1.00;;;;;;5143699;27;22262;-73
2023/11/01 00:36:27;;;;;;;0.90;0.70;;;9.20;1.00;;;;;;5145551;27;20591;-73
2023/11/01 00:38:54;;;;;;;3.50;2.60;;;9.20;1.00;;;;;;5148111;27;20533;-75
2023/11/01 00:41:21;;;;;;;1.50;1.13;;;9.20;1.00;;;;;;5145941;27;21026;-75
2023/11/01 00:43:48;;;;;;;1.77;0.87;;;9.20;1.00;;;;;;5136414;27;20467;-74
2023/11/01 00:46:15;;;;;;;1.20;0.80;;;9.20;1.00;;;;;;5125969;27;21290;-75
2023/11/01 00:48:42;;;;;;;1.43;0.87;;;9.20;1.00;;;;;;5137710;27;20443;-75
2023/11/01 00:51:10;;;;;;;2.87;1.30;;;9.10;1.00;;;;;;5146711;27;20723;-76
2023/11/01 00:53:37;;;;;;;1.17;0.90;;;9.10;1.00;;;;;;5128283;27;20461;-75
2023/11/01 00:56:05;;;;;;;1.97;0.93;;;9.20;1.00;;;;;;5125073;27;20551;-76
2023/11/01 00:58:32;;;;;;;1.17;0.80;;;9.20;1.00;;;;;;5144425;27;20596;-75
2023/11/01 01:00:59;;;;;;;2.60;1.10;;;9.10;1.00;;;;;;5151638;27;20543;-75
2023/11/01 01:03:25;;;;;;;1.10;1.00;;;9.10;1.00;;;;;;5126445;27;20495;-76
2023/11/01 01:05:53;;;;;;;1.60;0.70;;;9.10;1.00;;;;;;5133743;27;20548;-75
2023/11/01 01:08:21;;;;;;;0.90;0.70;;;9.10;1.00;;;;;;5136947;27;20539;-69
2023/11/01 01:10:48;;;;;;;3.00;0.90;;;9.20;1.00;;;;;;5131919;27;20465;-68
2023/11/01 01:13:15;;;;;;;2.43;0.80;;;9.20;1.00;;;;;;5128626;27;21047;-70
2023/11/01 01:15:42;;;;;;;3.73;1.03;;;9.30;1.00;;;;;;5131702;27;20604;-70
2023/11/01 01:18:09;;;;;;;1.30;0.80;;;9.30;1.00;;;;;;5127738;27;20563;-69
2023/11/01 01:20:36;;;;;;;1.90;0.90;;;9.40;1.00;;;;;;5127064;27;20540;-73
2023/11/01 01:23:03;;;;;;;2.30;1.20;;;9.50;1.00;;;;;;5123716;27;21210;-69
2023/11/01 01:25:31;;;;;;;1.87;1.20;;;9.40;1.00;;;;;;5126631;27;20518;-70
2023/11/01 01:27:58;;;;;;;1.83;0.90;;;9.40;1.00;;;;;;5143195;27;20502;-71
2023/11/01 01:30:25;;;;;;;3.50;1.33;;;9.40;1.00;;;;;;5148557;27;20539;-69
2023/11/01 01:32:52;;;;;;;3.03;1.10;;;9.40;1.00;;;;;;5138054;27;20453;-69
2023/11/01 01:35:19;;;;;;;2.57;1.10;;;9.50;1.00;;;;;;5147888;27;22137;-69
2023/11/01 01:37:46;;;;;;;1.67;1.10;;;9.50;1.00;;;;;;5149670;27;20472;-70
2023/11/01 01:40:13;;;;;;;1.50;1.00;;;9.50;1.00;;;;;;5149177;27;20483;-72
2023/11/01 01:42:42;;;;;;;1.00;0.63;;;9.60;1.00;;;;;;5129056;27;20575;-69
2023/11/01 01:45:10;;;;;;;1.67;0.80;;;9.60;1.00;;;;;;5128365;27;20469;-70
2023/11/01 01:47:37;;;;;;;2.73;0.90;;;9.60;1.00;;;;;;5136848;27;21010;-72
2023/11/01 01:50:05;;;;;;;1.87;1.00;;;9.50;1.00;;;;;;5130608;27;20551;-73
2023/11/01 01:52:32;;;;;;;3.13;1.03;;;9.50;1.00;;;;;;5142485;27;21060;-70
2023/11/01 01:54:59;;;;;;;1.50;0.90;;;9.60;1.00;;;;;;5133671;27;20461;-74
2023/11/01 01:57:27;;;;;;;2.00;1.00;;;9.60;1.00;;;;;;5129508;27;20457;-72
2023/11/01 01:59:58;;;;;;;2.07;1.00;;;9.60;1.00;;;;;;5137215;27;20480;-70
2023/11/01 02:02:25;;;;;;;1.70;1.10;;;9.70;1.00;;;;;;5143153;27;20452;-69
2023/11/01 02:04:52;;;;;;;1.60;1.13;;;9.70;1.00;;;;;;5126463;27;20461;-69
2023/11/01 02:07:19;;;;;;;1.30;1.00;;;9.70;1.00;;;;;;5129464;27;20937;-73
2023/11/01 02:09:46;;;;;;;1.43;1.00;;;9.60;1.00;;;;;;5132666;27;22904;-70
2023/11/01 02:12:13;;;;;;;1.30;0.93;;;9.50;1.00;;;;;;5127698;27;20449;-69
2023/11/01 02:14:43;;;;;;;6.03;1.20;;;9.60;1.00;;;;;;5127852;27;20475;-69
2023/11/01 02:17:11;;;;;;;2.60;1.27;;;9.50;1.00;;;;;;5124184;27;20465;-73
2023/11/01 02:19:38;;;;;;;1.90;1.07;;;9.60;1.00;;;;;;5125576;27;20521;-75
2023/11/01 02:22:05;;;;;;;3.73;1.10;;;9.70;1.00;;;;;;5128569;27;21060;-76
2023/11/01 02:24:33;;;;;;;1.37;0.73;;;9.70;1.00;;;;;;5140895;27;20863;-76
2023/11/01 02:27:02;;;;;;;2.47;1.10;;;9.60;1.00;;;;;;5144403;27;20448;-76
2023/11/01 02:29:29;;;;;;;1.73;1.00;;;9.60;1.00;;;;;;5146992;27;20456;-72
2023/11/01 02:31:56;;;;;;;1.70;1.03;;;9.60;1.00;;;;;;5150570;27;20539;-75
2023/11/01 02:34:23;;;;;;;2.20;1.20;;;9.50;1.00;;;;;;5137566;27;20469;-75
2023/11/01 02:36:50;;;;;;;2.73;0.93;;;9.50;1.00;;;;;;5140448;27;20540;-75
2023/11/01 02:39:17;;;;;;;1.40;1.30;;;9.50;1.00;;;;;;5132229;27;20643;-75
2023/11/01 02:41:45;;;;;;;1.87;1.23;;;9.40;1.00;;;;;;5131552;27;20964;-75
2023/11/01 02:44:12;;;;;;;2.60;1.47;;;9.40;1.00;;;;;;5130638;27;23001;-74
2023/11/01 02:46:39;;;;;;;2.73;1.30;;;9.40;1.00;;;;;;5130339;27;20560;-74
2023/11/01 02:49:06;;;;;;;1.73;1.43;;;9.40;1.00;;;;;;5137766;27;20471;-75
2023/11/01 02:51:33;;;;;;;1.33;1.13;;;9.40;1.00;;;;;;5145236;27;20524;-75
2023/11/01 02:54:00;;;;;;;2.00;1.77;;;9.40;1.00;;;;;;5119763;27;20618;-75
2023/11/01 02:56:27;;;;;;;2.50;1.77;;;9.40;1.00;;;;;;5125801;27;20440;-73
2023/11/01 02:58:57;;;;;;;3.73;1.73;;;9.40;1.00;;;;;;5129545;27;20888;-74
2023/11/01 03:01:24;;;;;;;1.33;1.10;;;9.30;1.00;;;;;;5131838;27;20461;-74
2023/11/01 03:03:52;;;;;;;4.07;1.80;;;9.20;1.00;;;;;;5131465;27;21037;-75
2023/11/01 03:06:19;;;;;;;2.90;1.40;;;9.20;1.00;;;;;;5136632;27;20491;-75
2023/11/01 03:08:46;;;;;;;1.83;1.73;;;9.20;1.00;;;;;;5148347;27;20509;-77
2023/11/01 03:11:13;;;;;;;1.53;1.43;;;9.20;1.00;;;;;;5131248;27;20449;-74
2023/11/01 03:13:40;;;;;;;3.20;1.63;;;9.20;1.00;;;;;;5128572;27;20880;-74
2023/11/01 03:16:10;;;;;;;1.80;1.60;;;9.20;1.00;;;;;;5127076;27;20480;-75
2023/11/01 03:18:37;;;;;;;3.83;1.60;;;9.20;1.00;;;;;;5149190;27;20444;-76
2023/11/01 03:21:05;;;;;;;1.90;1.33;;;9.20;1.00;;;;;;5132552;27;21128;-75
2023/11/01 03:23:32;;;;;;;1.47;1.37;;;9.20;1.00;;;;;;5148451;27;20478;-75
2023/11/01 03:25:59;;;;;;;2.57;1.30;;;9.20;1.00;;;;;;5144851;27;20567;-75
2023/11/01 03:28:25;;;;;;;3.10;1.67;;;9.10;1.00;;;;;;5129514;27;20464;-71
2023/11/01 03:30:52;;;;;;;2.70;1.30;;;9.10;1.00;;;;;;5128167;27;20560;-70
2023/11/01 03:33:20;;;;;;;2.27;1.30;;;9.00;1.00;;;;;;5137973;27;20520;-72
2023/11/01 03:35:48;;;;;;;2.30;1.53;;;9.00;1.00;;;;;;5149071;27;20986;-73
2023/11/01 03:38:15;;;;;;;5.07;1.77;;;9.00;1.00;;;;;;5141280;27;20816;-72
2023/11/01 03:40:41;;;;;;;2.00;1.23;;;9.00;1.00;;;;;;5145334;27;20535;-71
2023/11/01 03:43:08;;;;;;;2.90;1.47;;;9.00;1.00;;;;;;5147927;27;20812;-72
2023/11/01 03:45:34;;;;;;;4.73;1.57;;;9.00;1.00;;;;;;5151719;27;21159;-71
2023/11/01 03:48:01;;;;;;;2.50;1.50;;;9.10;1.00;;;;;;5149317;27;20535;-70
2023/11/01 03:50:30;;;;;;;3.73;1.20;;;9.10;1.00;;;;;;5147221;27;21145;-71
2023/11/01 03:52:56;;;;;;;3.60;1.63;;;9.10;1.00;;;;;;5150382;27;20471;-72
2023/11/01 03:55:23;;;;;;;3.10;1.67;;;9.20;1.00;;;;;;5144972;27;20592;-70
2023/11/01 03:57:50;;;;;;;3.90;2.03;;;9.20;1.00;;;;;;5129340;27;20533;-70
2023/11/01 04:00:21;;;;;;;2.27;1.33;;;9.20;1.00;;;;;;5125106;27;20480;-70
2023/11/01 04:02:50;;;;;;;3.10;1.30;;;9.20;1.00;;;;;;5125313;27;21300;-74
2023/11/01 04:05:17;;;;;;;1.93;1.60;;;9.10;1.00;;;;;;5128871;27;21609;-69
2023/11/01 04:07:46;;;;;;;2.83;2.00;;;9.10;1.00;;;;;;5141563;27;20459;-68
2023/11/01 04:10:13;;;;;;;1.83;1.40;;;9.10;1.00;;;;;;5126870;27;21184;-71
2023/11/01 04:12:40;;;;;;;1.90;1.50;;;9.10;1.00;;;;;;5128955;27;20453;-69
2023/11/01 04:15:11;;;;;;;2.17;1.70;;;9.10;1.00;;;;;;5127738;27;20549;-73
2023/11/01 04:17:38;;;;;;;3.30;1.30;;;9.00;1.00;;;;;;5130806;27;21229;-69
2023/11/01 04:20:07;;;;;;;3.30;3.03;;;9.10;1.00;;;;;;5126784;27;20457;-69
2023/11/01 04:22:35;;;;;;;2.73;1.30;;;9.10;1.00;;;;;;5128927;27;20453;-70
2023/11/01 04:25:05;;;;;;;6.30;1.70;;;9.10;1.00;;;;;;5123773;27;20480;-71
2023/11/01 04:27:36;;;;;;;3.30;1.67;;;9.10;1.00;;;;;;5120972;27;20445;-70
2023/11/01 04:30:04;;;;;;;3.30;1.60;;;9.10;1.00;;;;;;5130170;27;20462;-71
2023/11/01 04:32:31;;;;;;;2.60;1.70;;;9.00;1.00;;;;;;5146714;27;20452;-68
2023/11/01 04:34:58;;;;;;;2.93;1.37;;;8.90;1.00;;;;;;5134398;27;20551;-72
2023/11/01 04:37:26;;;;;;;2.43;1.47;;;8.90;1.00;;;;;;5130420;27;20475;-74
2023/11/01 04:39:53;;;;;;;2.03;1.30;;;8.90;1.00;;;;;;5130292;27;20456;-73
2023/11/01 04:42:21;;;;;;;2.07;1.10;;;8.80;1.00;;;;;;5129772;27;20522;-73
2023/11/01 04:44:48;;;;;;;1.97;1.50;;;8.80;1.00;;;;;;5131041;27;20453;-73
2023/11/01 04:47:15;;;;;;;4.60;3.60;;;8.80;1.00;;;;;;5131888;27;20545;-74
2023/11/01 04:49:42;;;;;;;3.10;1.83;;;8.80;1.00;;;;;;5131424;27;20532;-72
2023/11/01 04:52:08;;;;;;;3.40;3.10;;;8.80;1.00;;;;;;5133159;27;21037;-75
2023/11/01 04:54:35;;;;;;;4.33;2.60;;;8.70;1.00;;;;;;5132097;27;21182;-73
2023/11/01 04:57:05;;;;;;;5.27;2.07;;;8.70;1.00;;;;;;5131611;27;20613;-73
2023/11/01 04:59:34;;;;;;;3.13;1.80;;;8.80;1.00;;;;;;5132403;27;20511;-73
2023/11/01 05:02:01;;;;;;;4.17;1.80;;;8.90;1.00;;;;;;5133405;27;20472;-73
2023/11/01 05:04:28;;;;;;;5.20;2.10;;;9.00;1.00;;;;;;5122328;27;20480;-74
2023/11/01 05:06:55;;;;;;;4.90;2.10;;;9.00;1.00;;;;;;5132879;27;20579;-75
2023/11/01 05:09:23;;;;;;;3.00;2.10;;;8.90;1.00;;;;;;5131395;27;20489;-73
2023/11/01 05:11:50;;;;;;;2.07;1.70;;;8.90;1.00;;;;;;5132171;27;20460;-74
2023/11/01 05:14:18;;;;;;;5.13;1.37;;;8.90;1.00;;;;;;5125777;27;21012;-73
2023/11/01 05:16:48;;;;;;;3.53;1.20;;;8.90;1.00;;;;;;5130371;27;20456;-73
2023/11/01 05:19:16;;;;;;;1.73;1.27;;;8.80;1.00;;;;;;5131386;27;20484;-72
2023/11/01 05:21:43;;;;;;;2.03;1.73;;;8.80;1.00;;;;;;5151753;27;20528;-72
2023/11/01 05:24:10;;;;;;;2.60;1.80;;;8.80;1.00;;;;;;5135096;27;21094;-73
2023/11/01 05:26:37;;;;;;;2.70;2.00;;;8.80;1.00;;;;;;5132890;27;20456;-73
2023/11/01 05:29:05;;;;;;;2.77;1.90;;;8.80;1.00;;;;;;5133578;27;21265;-72
2023/11/01 05:31:33;;;;;;;1.60;1.50;;;8.70;1.00;;;;;;5135236;27;20470;-72
2023/11/01 05:34:02;;;;;;;1.30;1.20;;;8.70;1.00;;;;;;5155152;27;20463;-72
2023/11/01 05:36:29;;;;;;;4.00;1.67;;;8.70;1.00;;;;;;5131252;27;20480;-72
2023/11/01 05:38:56;;;;;;;7.33;2.00;;;8.60;1.00;;;;;;5140931;27;20480;-72
2023/11/01 05:41:23;;;;;;;2.50;1.43;;;8.60;1.00;;;;;;5144103;27;20983;-72
2023/11/01 05:43:50;;;;;;;2.03;1.37;;;8.80;1.00;;;;;;5139815;27;20453;-72
2023/11/01 05:46:21;;;;;;;2.07;1.60;;;8.80;1.00;;;;;;5126499;27;20488;-73
2023/11/01 05:48:48;;;;;;;2.20;1.77;;;8.90;1.00;;;;;;5130043;27;20929;-74
2023/11/01 05:51:17;;;;;;;6.57;3.23;;;9.00;1.00;;;;;;5148894;27;21324;-76
2023/11/01 05:53:44;;;;;;;3.93;1.47;;;9.00;1.00;;;;;;5135707;27;20463;-75
2023/11/01 05:56:11;;;;;;;2.30;1.30;;;9.00;1.00;;;;;;5146890;27;20493;-75
2023/11/01 05:58:38;;;;;;;2.40;1.80;;;9.10;1.00;;;;;;5141995;27;20468;-75
2023/11/01 06:01:07;;;;;;;2.20;1.70;;;9.00;1.00;;;;;;5142619;27;20465;-74
2023/11/01 06:03:34;;;;;;;2.43;2.23;;;9.00;1.00;;;;;;5139374;27;20450;-74
2023/11/01 06:06:01;;;;;;;4.60;1.70;;;9.00;1.00;;;;;;5132582;27;20572;-74
2023/11/01 06:08:29;;;;;;;4.60;2.13;;;9.10;1.00;;;;;;5132728;27;20477;-74
2023/11/01 06:10:56;;;;;;;1.93;1.73;;;9.10;1.00;;;;;;5129479;27;20567;-74
2023/11/01 06:13:23;;;;;;;3.03;1.20;;;9.10;1.00;;;;;;5131863;27;20525;-75
2023/11/01 06:15:51;;;;;;;1.73;1.40;;;9.00;1.00;;;;;;5131393;27;20996;-74
2023/11/01 06:18:19;;;;;;;8.53;2.13;;;9.10;1.00;;;;;;5131950;27;20995;-74
2023/11/01 06:20:46;;;;;;;1.50;1.20;;;9.10;1.00;;;;;;5131989;27;21326;-75
2023/11/01 06:23:13;;;;;;;2.50;2.20;;;9.20;1.00;;;;;;5125779;27;20548;-75
2023/11/01 06:25:41;;;;;;;3.50;1.50;;;9.20;1.00;;;;;;5130831;27;20449;-74
2023/11/01 06:28:09;;;;;;;2.60;1.30;;;9.20;1.00;;;;;;5131985;27;20452;-75
2023/11/01 06:30:36;;;;;;;1.63;1.40;;;9.20;1.00;;;;;;5145817;27;20439;-75
2023/11/01 06:33:03;;;;;;;2.50;2.30;;;9.20;1.00;;;;;;5151492;27;20456;-75
2023/11/01 06:35:29;;;;;;;3.80;2.00;;;9.30;1.00;;;;;;5142099;27;20452;-75
2023/11/01 06:37:56;;;;;;;3.50;1.77;;;9.20;1.00;;;;;;5139131;27;20464;-76
2023/11/01 06:40:23;;;;;;;1.70;1.20;;;9.20;1.00;;;;;;5142560;27;20510;-76
2023/11/01 06:42:53;;;;;;;2.17;1.47;;;9.30;1.00;;;;;;5132497;27;20472;-77
2023/11/01 06:45:20;;;;;;;3.00;2.20;;;9.30;1.00;;;;;;5122946;27;20613;-72
2023/11/01 06:47:47;;;;;;;3.33;1.67;;;9.30;1.00;;;;;;5130712;27;21109;-75
2023/11/01 06:50:14;;;;;;;2.77;1.50;;;9.40;1.00;;;;;;5143926;27;20630;-76
2023/11/01 06:52:44;;;;;;;4.73;2.33;;;9.40;1.00;;;;;;5137351;27;20459;-75
2023/11/01 06:55:11;;;;;;;2.20;1.10;;;9.40;1.00;;;;;;5129486;27;20449;-74
2023/11/01 06:57:38;;;;;;;2.47;1.33;;;9.50;1.00;;;;;;5145453;27;20811;-72
2023/11/01 07:00:10;;;;;;;5.10;1.70;;;9.50;1.00;;;;;;5144372;27;20495;-71
2023/11/01 07:02:37;;;;;;;3.70;1.60;;;9.50;1.00;;;;;;5137925;27;21150;-70
2023/11/01 07:05:05;;;;;;;2.67;1.90;;;9.50;1.00;;;;;;5136816;27;20958;-71
2023/11/01 07:07:33;;;;;;;1.77;1.50;;;9.60;1.00;;;;;;5135235;27;20446;-71
2023/11/01 07:10:00;;;;;;;3.40;1.50;;;9.50;1.00;;;;;;5126008;27;20560;-71
2023/11/01 07:12:28;;;;;;;3.90;1.70;;;9.50;1.00;;;;;;5132885;27;20445;-70
2023/11/01 07:14:54;;;;;;;1.50;1.20;;;9.50;1.00;;;;;;5150914;27;21099;-69
2023/11/01 07:17:26;;;;;;;4.10;2.30;;;9.50;1.00;;;;;;5141881;27;20477;-68
2023/11/01 07:19:54;;;;;;;2.27;1.53;;;9.50;1.00;;;;;;5132487;27;20430;-69
2023/11/01 07:22:21;;;;;;;3.30;1.80;;;9.50;1.00;;;;;;5131503;27;20465;-74
2023/11/01 07:24:49;;;;;;;2.90;1.60;;;9.50;1.00;;;;;;5127672;27;20472;-70
2023/11/01 07:27:16;;;;;;;1.77;1.60;;;9.70;1.00;;;;;;5128579;27;20968;-70
2023/11/01 07:29:43;;;;;;;3.00;1.80;;;9.70;1.00;;;;;;5129077;27;20465;-69
2023/11/01 07:32:10;;;;;;;3.90;2.90;;;9.80;1.00;;;;;;5137813;27;20558;-69
2023/11/01 07:34:38;;;;;;;3.80;1.70;;;9.80;1.00;;;;;;5140730;27;20447;-71
2023/11/01 07:37:05;;;;;;;3.77;2.13;;;9.80;1.00;;;;;;5144761;27;20452;-72
2023/11/01 07:39:34;;;;;;;3.30;1.57;;;9.90;1.00;;;;;;5149119;27;20455;-72
2023/11/01 07:42:01;;;;;;;3.80;1.50;;;9.90;1.00;;;;;;5146038;27;20459;-73
2023/11/01 07:44:28;;;;;;;3.30;1.20;;;9.80;1.00;;;;;;5148517;27;20490;-72
2023/11/01 07:46:55;;;;;;;1.50;1.30;;;9.90;1.00;;;;;;5144273;27;20569;-73
2023/11/01 07:49:22;;;;;;;1.90;1.40;;;10.00;1.00;;;;;;5130868;27;20991;-70
2023/11/01 07:51:50;;;;;;;8.03;6.60;;;9.90;1.00;;;;;;5128726;27;20979;-73
2023/11/01 07:54:17;;;;;;;1.60;1.50;;;9.90;1.00;;;;;;5128312;27;20544;-72
2023/11/01 07:56:44;;;;;;;3.80;1.60;;;10.00;1.00;;;;;;5141702;27;20452;-71
2023/11/01 07:59:11;;;;;;;2.83;1.40;;;10.10;1.00;;;;;;5131981;27;20504;-72
2023/11/01 08:01:38;;;;;;;2.33;1.20;;;10.10;1.00;;;;;;5128266;27;20518;-71
2023/11/01 08:04:06;;;;;;;2.93;1.83;;;10.20;1.00;;;;;;5129683;27;20907;-72
2023/11/01 08:06:33;;;;;;;4.47;1.60;;;10.20;1.00;;;;;;5137388;27;20909;-73
2023/11/01 08:09:01;;;;;;;3.40;1.30;;;10.20;1.00;;;;;;5122038;27;21312;-74
2023/11/01 08:11:28;;;;;;;1.97;1.57;;;10.20;1.00;;;;;;5143670;27;20577;-73
2023/11/01 08:13:55;;;;;;;4.90;4.13;;;10.50;1.00;;;;;;5147603;27;20459;-74
2023/11/01 08:16:22;;;;;;;2.50;1.90;;;11.00;1.00;;;;;;5148928;27;21244;-74
2023/11/01 08:18:49;;;;;;;3.30;2.10;;;11.20;1.00;;;;;;5149677;27;20479;-74
2023/11/01 08:21:16;;;;;;;2.50;1.60;;;11.00;1.00;;;;;;5138802;27;20465;-75
2023/11/01 08:23:44;;;;;;;1.90;1.50;;;10.90;1.00;;;;;;5143582;27;20460;-74
2023/11/01 08:26:17;;;;;;;2.30;1.80;;;11.00;1.00;;;;;;5132498;27;20484;-76
2023/11/01 08:28:44;;;;;;;4.10;1.80;;;11.00;1.00;;;;;;5137785;27;20500;-72
2023/11/01 08:31:11;;;;;;;3.27;1.63;;;10.90;1.00;;;;;;5131665;27;20477;-75
2023/11/01 08:33:38;;;;;;;3.73;2.13;;;10.80;1.00;;;;;;5124679;27;20981;-74
2023/11/01 08:36:05;;;;;;;4.23;2.57;;;10.80;1.00;;;;;;5127677;27;20577;-73
2023/11/01 08:38:32;;;;;;;4.60;2.20;;;10.80;1.00;;;;;;5139902;27;20482;-73
2023/11/01 08:40:59;;;;;;;2.10;1.90;;;10.80;1.00;;;;;;5134474;27;20576;-73
2023/11/01 08:43:27;;;;;;;2.43;1.73;;;10.90;1.00;;;;;;5129888;27;20448;-75
2023/11/01 08:45:54;;;;;;;4.13;1.90;;;10.90;1.00;;;;;;5121905;27;20445;-74
2023/11/01 08:48:21;;;;;;;4.27;2.03;;;10.80;1.00;;;;;;5127969;27;20547;-73
2023/11/01 08:50:48;;;;;;;3.40;2.10;;;10.90;1.00;;;;;;5126490;27;20414;-73
2023/11/01 08:53:15;;;;;;;3.80;2.60;;;10.90;1.00;;;;;;5144612;27;20262;-73
2023/11/01 08:55:42;;;;;;;3.10;1.90;;;11.00;1.00;;;;;;5142474;27;20480;-75
2023/11/01 08:58:09;;;;;;;3.10;2.27;;;11.00;1.00;;;;;;5147732;27;20562;-74
2023/11/01 09:00:37;;;;;;;2.80;1.83;;;11.10;1.00;;;;;;5141500;27;20455;-75
2023/11/01 09:03:04;;;;;;;4.93;1.97;;;11.10;1.00;;;;;;5148705;27;20452;-75
2023/11/01 09:05:31;;;;;;;2.73;2.10;;;11.20;1.00;;;;;;5141985;27;20489;-75
2023/11/01 09:07:58;;;;;;;2.20;2.00;;;11.20;1.00;;;;;;5124761;27;20449;-74
2023/11/01 09:10:25;;;;;;;2.50;1.80;;;11.40;1.00;;;;;;5124200;27;20441;-74
2023/11/01 09:12:52;;;;;;;5.37;2.40;;;11.70;1.00;;;;;;5126239;27;20536;-74
2023/11/01 09:15:19;;;;;;;4.87;2.90;;;12.20;1.00;;;;;;5126979;27;20546;-74
2023/11/01 09:17:48;;;;;;;2.63;2.30;;;12.50;1.00;;;;;;5127210;27;20477;-72
2023/11/01 09:20:15;;;;;;;3.50;2.20;;;12.50;1.00;;;;;;5126295;27;20446;-72
2023/11/01 09:22:42;;;;;;;3.70;2.60;;;12.60;1.00;;;;;;5131913;27;20552;-72
2023/11/01 09:25:09;;;;;;;3.43;1.90;;;12.60;1.00;;;;;;5130545;27;20453;-71
2023/11/01 09:27:36;;;;;;;4.57;2.50;;;12.50;1.00;;;;;;5127803;27;20509;-69
2023/11/01 09:30:05;;;;;;;3.50;2.60;;;12.50;1.00;;;;;;5131974;27;21549;-72
2023/11/01 09:32:32;;;;;;;3.20;2.30;;;12.50;1.00;;;;;;5133955;27;20540;-71
2023/11/01 09:35:00;;;;;;;4.67;2.67;;;12.60;1.00;;;;;;5127489;27;20454;-69
2023/11/01 09:37:27;;;;;;;3.10;2.20;;;12.70;1.00;;;;;;5141026;27;20991;-70
2023/11/01 09:39:54;;;;;;;4.80;2.20;;;12.80;1.00;;;;;;5150152;27;20511;-69
2023/11/01 09:42:23;;;;;;;3.60;2.33;;;12.90;1.00;;;;;;5131237;27;20462;-75
2023/11/01 09:44:55;;;;;;;3.40;2.27;;;12.90;1.00;;;;;;5132539;27;20460;-70
2023/11/01 09:47:24;;;;;;;5.53;2.60;;;13.00;1.00;;;;;;5134594;27;20463;-70
2023/11/01 09:49:51;;;;;;;3.63;2.60;;;13.20;1.00;;;;;;5131580;27;20455;-73
2023/11/01 09:52:19;;;;;;;4.33;2.43;;;13.20;1.00;;;;;;5139441;27;20462;-74
2023/11/01 09:54:47;;;;;;;4.50;3.00;;;13.30;1.00;;;;;;5142328;27;20463;-71
2023/11/01 09:57:17;;;;;;;3.53;2.30;;;13.30;1.00;;;;;;5132825;27;20477;-71
2023/11/01 09:59:44;;;;;;;5.03;2.53;;;13.50;1.00;;;;;;5138105;27;20454;-72
2023/11/01 10:02:11;;;;;;;2.60;2.40;;;13.60;1.00;;;;;;5135547;27;20504;-71
2023/11/01 10:04:39;;;;;;;4.23;2.50;;;13.80;1.00;;;;;;5135615;27;20547;-72
2023/11/01 10:07:06;;;;;;;3.10;2.53;;;13.90;1.00;;;;;;5138858;27;21068;-77
2023/11/01 10:09:36;;;;;;;4.10;2.90;;;14.40;1.00;;;;;;5134640;27;20540;-72
2023/11/01 10:12:07;;;;;;;7.97;3.57;;;15.30;1.00;;;;;;5133912;27;20468;-72
2023/11/01 10:14:35;;;;;;;3.83;2.73;;;15.60;1.00;;;;;;5126888;27;20454;-72
2023/11/01 10:17:04;;;;;;;5.60;2.53;;;15.70;1.00;;;;;;5134783;27;20489;-73
2023/11/01 10:19:31;;;;;;;2.83;2.53;;;15.20;1.00;;;;;;5133036;27;20527;-71
2023/11/01 10:21:59;;;;;;;2.77;2.57;;;14.90;1.00;;;;;;5130242;27;20431;-72
2023/11/01 10:24:26;;;;;;;4.43;2.20;;;14.80;1.00;;;;;;5133329;27;20460;-72
2023/11/01 10:26:55;;;;;;;2.60;2.40;;;15.10;1.00;;;;;;5132714;27;20528;-72
2023/11/01 10:29:22;;;;;;;4.30;2.80;;;15.30;1.00;;;;;;5130542;27;20460;-72
2023/11/01 10:31:54;;;;;;;4.93;2.40;;;15.30;1.00;;;;;;5128020;27;20463;-71
2023/11/01 10:34:26;;;;;;;3.30;2.50;;;15.40;1.00;;;;;;5130866;27;20555;-72
2023/11/01 10:36:54;;;;;;;4.07;2.80;;;15.60;1.00;;;;;;5133456;27;20558;-72
2023/11/01 10:39:22;;;;;;;2.60;2.40;;;15.50;1.00;;;;;;5133186;27;20587;-72
2023/11/01 10:41:50;;;;;;;3.00;2.07;;;15.70;1.00;;;;;;5132272;27;20459;-71
2023/11/01 10:44:20;;;;;;;3.37;2.10;;;15.90;1.00;;;;;;5131065;27;20495;-70
2023/11/01 10:46:48;;;;;;;4.90;2.50;;;16.00;1.00;;;;;;5131041;27;21321;-71
2023/11/01 10:49:16;;;;;;;2.50;2.30;;;16.20;1.00;;;;;;5129938;27;21726;-74
2023/11/01 10:51:44;;;;;;;3.27;2.77;;;16.50;1.00;;;;;;5132007;27;20477;-71
2023/11/01 10:54:12;;;;;;;4.70;2.57;;;16.70;1.00;;;;;;5133215;27;20452;-72
2023/11/01 10:56:40;;;;;;;4.37;2.43;;;16.60;1.00;;;;;;5129793;27;20501;-70
2023/11/01 10:59:23;;;;;;;3.07;2.27;;;16.60;1.00;;;;;;5147260;27;20670;-71
2023/11/01 11:01:56;;;;;;;2.57;2.10;;;16.60;1.00;;;;;;5151029;27;20448;-71
2023/11/01 11:04:31;;;;;;;6.10;2.73;;;16.60;1.00;;;;;;5132252;27;20475;-72
2023/11/01 11:07:13;;;;;;;4.03;2.30;;;16.40;1.00;;;;;;5129215;27;20569;-74
2023/11/01 11:09:40;;;;;;;3.30;2.57;;;16.30;1.00;;;;;;5128559;27;20982;-71
2023/11/01 11:12:17;;;;;;;3.17;2.87;;;16.50;1.00;;;;;;5129759;27;20460;-71
2023/11/01 11:14:46;;;;;;;3.63;2.60;;;17.20;1.00;;;;;;5126964;27;20839;-73
2023/11/01 11:17:15;;;;;;;5.47;2.53;;;18.10;1.00;;;;;;5147728;27;20506;-71
2023/11/01 11:20:13;;;;;;;2.63;2.10;;;18.40;1.00;;;;;;5130851;27;20450;-73
2023/11/01 11:23:09;;;;;;;6.80;2.70;;;18.20;1.00;;;;;;5140184;27;20981;-71
2023/11/01 11:25:49;;;;;;;4.43;4.03;;;17.80;1.00;;;;;;5149683;27;21191;-73
2023/11/01 11:28:40;;;;;;;3.37;2.50;;;17.40;1.00;;;;;;5151290;27;20576;-70
2023/11/01 11:31:12;;;;;;;4.70;2.00;;;17.30;1.00;;;;;;5155058;27;20449;-72
2023/11/01 11:33:54;;;;;;;2.50;1.63;;;17.30;1.00;;;;;;5135606;27;20468;-71
2023/11/01 11:36:23;;;;;;;3.13;2.07;;;17.50;1.00;;;;;;5139970;27;20876;-71
2023/11/01 11:38:52;;;;;;;2.80;2.23;;;17.60;1.00;;;;;;5151935;27;20461;-75
2023/11/01 11:41:20;;;;;;;4.17;2.60;;;17.50;1.00;;;;;;5128514;27;20949;-75
2023/11/01 11:43:59;;;;;;;2.70;2.13;;;17.90;1.00;;;;;;5145892;27;20473;-75
2023/11/01 11:46:34;;;;;;;3.03;1.60;;;18.10;1.00;;;;;;5130842;27;20460;-78
2023/11/01 11:49:02;;;;;;;3.80;1.70;;;17.90;1.00;;;;;;5141038;27;20819;-80
2023/11/01 11:51:33;;;;;;;12.40;10.13;;;17.70;1.00;;;;;;5131252;27;20474;-78
2023/11/01 11:54:13;;;;;;;3.10;1.67;;;17.30;1.00;;;;;;5132915;27;20457;-74
2023/11/01 11:56:40;;;;;;;3.23;1.70;;;17.90;1.00;;;;;;5138267;27;20456;-75
2023/11/01 11:59:09;;;;;;;2.33;1.60;;;19.20;1.00;;;;;;5130824;27;20518;-76
2023/11/01 12:01:37;;;;;;;4.33;1.60;;;19.40;1.00;;;;;;5129821;27;21850;-79
2023/11/01 12:04:07;;;;;;;2.80;1.17;;;18.80;1.00;;;;;;5140069;27;21065;-75
2023/11/01 12:06:42;;;;;;;1.63;1.20;;;18.10;1.00;;;;;;5135362;27;20451;-76
2023/11/01 12:09:19;;;;;;;2.33;1.40;;;17.80;1.00;;;;;;5154472;27;20556;-80
2023/11/01 12:11:49;;;;;;;3.27;1.53;;;17.50;1.00;;;;;;5144525;27;20475;-79
2023/11/01 12:14:20;;;;;;;4.17;1.60;;;17.40;1.00;;;;;;5138107;27;20538;-76
2023/11/01 12:16:49;;;;;;;2.20;1.60;;;17.10;1.00;;;;;;5154073;27;20521;-74
2023/11/01 12:19:20;;;;;;;2.90;1.57;;;17.00;1.00;;;;;;5149501;27;20995;-77
2023/11/01 12:21:49;;;;;;;2.37;1.47;;;17.00;1.00;;;;;;5152200;27;20500;-78
2023/11/01 12:24:17;;;;;;;3.43;1.33;;;17.20;1.00;;;;;;5150229;27;20883;-76
2023/11/01 12:27:01;;;;;;;1.23;1.13;;;17.30;1.00;;;;;;5128442;27;20545;-79
2023/11/01 12:29:35;;;;;;;2.00;1.20;;;17.00;1.00;;;;;;5131427;27;20468;-78
2023/11/01 12:32:08;;;;;;;1.50;1.20;;;16.80;1.00;;;;;;5131944;27;20981;-79
2023/11/01 12:34:37;;;;;;;2.10;1.23;;;16.70;1.00;;;;;;5133816;27;20446;-78
2023/11/01 12:37:06;;;;;;;1.90;1.10;;;16.90;1.00;;;;;;5129681;27;20548;-77
2023/11/01 12:39:34;;;;;;;7.10;1.80;;;17.00;1.00;;;;;;5131804;27;20441;-80
2023/11/01 12:42:20;;;;;;;1.30;1.20;;;17.00;1.00;;;;;;5129787;27;20453;-79
2023/11/01 12:44:48;;;;;;;1.83;0.90;;;17.00;1.00;;;;;;5133532;27;20460;-77
2023/11/01 12:47:17;;;;;;;1.77;1.10;;;17.00;1.00;;;;;;5128053;27;20533;-75
2023/11/01 12:49:44;;;;;;;4.80;2.37;;;17.10;1.00;;;;;;5130424;27;20995;-71
2023/11/01 12:52:11;;;;;;;3.17;1.90;;;17.10;1.00;;;;;;5131722;27;20461;-69
2023/11/01 12:54:38;;;;;;;3.40;1.67;;;17.10;1.00;;;;;;5129994;27;20884;-70
2023/11/01 12:57:05;;;;;;;2.30;1.30;;;17.10;1.00;;;;;;5144187;27;20485;-70
2023/11/01 12:59:33;;;;;;;2.77;1.40;;;17.10;1.00;;;;;;5146785;27;20964;-71
2023/11/01 13:02:00;;;;;;;1.40;1.30;;;17.20;1.00;;;;;;5157748;27;20514;-69
2023/11/01 13:04:32;;;;;;;1.53;1.10;;;17.30;1.00;;;;;;5137310;27;20422;-70
2023/11/01 13:06:59;;;;;;;3.17;1.10;;;17.30;1.00;;;;;;5149751;27;21318;-70
2023/11/01 13:09:27;;;;;;;1.63;1.20;;;17.30;1.00;;;;;;5145041;27;21053;-71